Laguna, New Mexico
Current Conditions -  °F | °C
As of 10:35 PM on Wednesday 17 Dec 2014 (Local Time) from KGNT Reporting Station
Overcast Overcast  
Wind Chill: 30°   Ceiling: 3000
Heat Index: 30°   Visibility: 10mi
Dew Point: 28°   Wind: 3mph
Humidity: 91%   Direction: 220°SW
Pressure: 30.12"   Gusts: NA
Location:  35.04°N, 107.39°W
Report Text: KGNT 180535Z AUTO 22003KT 10SM OVC030 M01/M02 A3012 RMK AO2 T10101023
Loading
Personal Weather Stations






























Interactive Weather Map New forecast layout! Learn more

10-Day Weather Forecast

Advertisements
Track Severe Weather on mobile